Pagina principale
METAR-TAF:

METAR-TAF

Aeroporti :

Aeroporto di Cuneo-Levaldigi

Cuneo, Italia

latitudine: 44-32-47N, longitudine: 007-37-20E, altezza: 386 m

Osservazione

Il bollettino è stato emesso 9 ore e 57 minuti fa, alle 18:50 UTC
Vento 11 kt da sud-ovest
Temperature 11°C
Umidità 82%
Pressione 1010 hPa
Visibilità 10 km o più
Nubi sparse ad un'altezza di 5000 ft

METAR: LIMZ 291850Z 23011KT 9999 SCT050 11/08 Q1010

Ora: 06:47 (04:47 UTC)

Previsione

Il bollettino è stato emesso 11 ore e 47 minuti fa, alle 17:00 UTC
Previsione valida dal 29 alle 18 UTC al 30 alle 18 UTC
Vento 5 kt da direzioni variabili
Visibilità: 6000 m
Nubi sparse ad un'altezza di 4000 ft
pioggia
Evoluzione graduale
dal 30 alle 06 UTC al 30 alle 09 UTC
Temporaneamente
dal 30 alle 15 UTC al 30 alle 18 UTC
Visibilità: 4000 m
pioggia

TAF: LIMZ 291700Z 2918/3018 VRB05KT 6000 RA SCT040 BECMG 3006/3009 NSW TEMPO 3015/3018 4000 RA

Osservazioni e previsioni meteorologiche di più di 4000 aeroporti (messaggi METAR e TAF).

Le stazioni disponibili sono rappresentate dai dischi gialli e rossi sulla carta.

Puntare il mouse per vedere il nome della stazione.

Clicca sopra per visualizzare le osservazioni e previsioni meteorologiche.

Per cambiare la mappa : fare clic sui pulsanti verdi con una croce nera per ingrandire, il pulsante verde con un trattino per diminuire, o sulla freccia verde per le mappe adiacenti.


METAR-TAF: